Time;durP1;ratioP1;P1;durP2;ratioP2;P2;SDS_P1;SDS_P2;PMS_P1;PMS_P2;Temp;Humidity;BMP_temperature;BMP_pressure;BME280_temperature;BME280_humidity;BME280_pressure;Samples;Min_cycle;Max_cycle;Signal;HPM_P1;HPM_P2
2022/06/13 00:00:28;;;;;;;;;;;;;;;16.02;91.39;97147.47;30001;982;1873;-61
2022/06/13 00:00:59;;;;;;;;;;;;;;;16.00;90.59;97138.78;30001;957;1809;-62
2022/06/13 00:01:31;;;;;;;;;;;;;;;15.99;90.61;97128.94;30001;983;1881;-63
2022/06/13 00:02:02;;;;;;;;;;;;;;;15.99;90.14;97118.00;30001;983;1881;-63
2022/06/13 00:02:34;;;;;;;;;;;;;;;16.00;90.00;97122.34;30001;983;1881;-62
2022/06/13 00:03:06;;;;;;;;;;;;;;;16.00;89.76;97116.88;30001;983;1881;-63
2022/06/13 00:03:37;;;;;;;;;;;;;;;16.00;90.12;97116.88;30001;983;1881;-63
2022/06/13 00:04:08;;;;;;;;;;;;;;;16.02;90.33;97122.03;30001;983;1868;-62
2022/06/13 00:04:41;;;;;;;;;;;;;;;16.00;90.56;97125.09;30001;983;1872;-63
2022/06/13 00:05:12;;;;;;;;;;;;;;;15.99;90.55;97118.00;30001;983;1881;-62
2022/06/13 00:05:43;;;;;;;;;;;;;;;15.95;90.50;97122.50;30001;982;1881;-64
2022/06/13 00:06:15;;;;;;;;;;;;;;;15.96;90.42;97126.84;30001;982;1868;-61
2022/06/13 00:06:45;;;;;;;;;;;;;;;15.95;90.29;97136.19;30001;982;1873;-62
2022/06/13 00:07:16;;;;;;;;;;;;;;;15.94;90.73;97140.06;30001;982;1882;-62
2022/06/13 00:07:47;;;;;;;;;;;;;;;15.95;90.50;97140.84;30001;982;1882;-62
2022/06/13 00:08:18;;;;;;;;;;;;;;;15.95;90.82;97143.59;30001;983;1881;-63
2022/06/13 00:08:49;;;;;;;;;;;;;;;15.96;91.46;97143.28;30001;983;1881;-64
2022/06/13 00:09:20;;;;;;;;;;;;;;;15.94;92.14;97155.69;30001;983;1881;-63
2022/06/13 00:09:51;;;;;;;;;;;;;;;15.93;91.97;97157.63;30001;983;1868;-62
2022/06/13 00:10:22;;;;;;;;;;;;;;;15.92;91.74;97158.75;30001;983;1872;-62
2022/06/13 00:10:53;;;;;;;;;;;;;;;15.94;92.01;97161.94;30001;983;1881;-62
2022/06/13 00:11:24;;;;;;;;;;;;;;;15.96;92.33;97165.16;30001;983;1881;-59
2022/06/13 00:11:55;;;;;;;;;;;;;;;15.97;92.74;97158.56;30001;983;1881;-62
2022/06/13 00:12:27;;;;;;;;;;;;;;;15.99;93.11;97153.59;30001;983;1881;-62
2022/06/13 00:12:57;;;;;;;;;;;;;;;15.99;93.07;97152.78;30001;983;1868;-62
2022/06/13 00:13:28;;;;;;;;;;;;;;;15.99;92.93;97148.09;30001;982;1873;-63
2022/06/13 00:13:59;;;;;;;;;;;;;;;16.00;92.75;97149.72;30001;982;1868;-62
2022/06/13 00:14:30;;;;;;;;;;;;;;;16.00;92.54;97146.19;30001;982;1873;-61
2022/06/13 00:15:01;;;;;;;;;;;;;;;16.00;92.77;97149.72;30001;982;1882;-62
2022/06/13 00:15:33;;;;;;;;;;;;;;;16.00;92.34;97152.47;30001;982;1881;-63
2022/06/13 00:16:04;;;;;;;;;;;;;;;16.00;92.95;97152.47;30001;983;1881;-62
2022/06/13 00:16:35;;;;;;;;;;;;;;;15.99;92.28;97147.31;30001;983;1867;-63
2022/06/13 00:17:07;;;;;;;;;;;;;;;15.97;92.49;97144.06;30001;983;1872;-63
2022/06/13 00:17:38;;;;;;;;;;;;;;;15.96;91.90;97137.00;30001;983;1881;-61
2022/06/13 00:18:08;;;;;;;;;;;;;;;15.96;92.11;97139.72;30001;983;1881;-61
2022/06/13 00:18:39;;;;;;;;;;;;;;;15.97;92.32;97144.88;30001;983;1868;-63
2022/06/13 00:19:10;;;;;;;;;;;;;;;15.98;92.26;97151.16;30001;983;1872;-61
2022/06/13 00:19:41;;;;;;;;;;;;;;;15.98;92.26;97157.44;30001;983;1881;-62
2022/06/13 00:20:12;;;;;;;;;;;;;;;15.98;92.33;97151.97;30001;982;1881;-63
2022/06/13 00:20:43;;;;;;;;;;;;;;;15.97;92.23;97150.34;30001;982;1868;-63
2022/06/13 00:21:18;;;;;;;;;;;;;;;15.99;93.62;97147.31;30001;982;1872;-63
2022/06/13 00:21:49;;;;;;;;;;;;;;;15.98;93.46;97157.44;30001;982;1868;-62
2022/06/13 00:22:20;;;;;;;;;;;;;;;15.99;93.84;97159.06;30001;982;1873;-62
2022/06/13 00:22:51;;;;;;;;;;;;;;;15.97;94.01;97150.34;30001;982;1882;-63
2022/06/13 00:23:22;;;;;;;;;;;;;;;15.97;94.66;97161.31;30001;983;1881;-63
2022/06/13 00:23:53;;;;;;;;;;;;;;;15.95;94.60;97158.09;30001;983;1881;-61
2022/06/13 00:24:24;;;;;;;;;;;;;;;15.94;94.38;97163.91;30001;983;1881;-62
2022/06/13 00:24:55;;;;;;;;;;;;;;;15.93;93.68;97160.38;30001;983;1881;-64
2022/06/13 00:25:26;;;;;;;;;;;;;;;15.94;93.71;97161.16;30001;983;1868;-63
2022/06/13 00:25:57;;;;;;;;;;;;;;;15.90;93.97;97155.53;30001;983;1872;-62
2022/06/13 00:26:30;;;;;;;;;;;;;;;15.88;94.88;97152.31;30001;983;1881;-63
2022/06/13 00:27:02;;;;;;;;;;;;;;;15.87;94.95;97156.16;30001;983;1881;-61
2022/06/13 00:27:34;;;;;;;;;;;;;;;15.88;94.73;97155.03;30001;982;1881;-63
2022/06/13 00:28:05;;;;;;;;;;;;;;;15.87;94.86;97150.69;30001;982;1881;-63
2022/06/13 00:28:35;;;;;;;;;;;;;;;15.88;95.05;97152.31;30001;982;1873;-62
2022/06/13 00:29:06;;;;;;;;;;;;;;;15.90;94.75;97150.06;30001;982;1868;-62
2022/06/13 00:29:37;;;;;;;;;;;;;;;15.91;94.55;97153.59;30001;982;1873;-62
2022/06/13 00:30:09;;;;;;;;;;;;;;;15.92;94.14;97141.53;30001;982;1881;-62
2022/06/13 00:30:40;;;;;;;;;;;;;;;15.94;94.64;97150.22;30001;982;1881;-63
2022/06/13 00:31:11;;;;;;;;;;;;;;;15.96;94.35;97148.75;30001;983;1881;-61
2022/06/13 00:31:42;;;;;;;;;;;;;;;15.97;94.18;97144.06;30001;983;1881;-62
2022/06/13 00:32:13;;;;;;;;;;;;;;;15.97;93.83;97135.87;30001;983;1881;-61
2022/06/13 00:32:44;;;;;;;;;;;;;;;15.98;93.85;97135.53;30001;983;1881;-63
2022/06/13 00:33:15;;;;;;;;;;;;;;;15.98;93.86;97141.03;30001;983;1881;-59
2022/06/13 00:33:46;;;;;;;;;;;;;;;15.99;94.20;97137.16;30001;983;1881;-63
2022/06/13 00:34:17;;;;;;;;;;;;;;;15.99;94.20;97133.63;30001;976;1886;-62
2022/06/13 00:34:48;;;;;;;;;;;;;;;15.99;94.47;97130.88;30001;983;1872;-63
2022/06/13 00:35:19;;;;;;;;;;;;;;;15.98;94.18;97124.59;30001;971;1887;-62
2022/06/13 00:35:51;;;;;;;;;;;;;;;15.98;93.79;97132.81;30001;982;1873;-61
2022/06/13 00:36:23;;;;;;;;;;;;;;;15.99;93.26;97128.94;30001;982;1881;-63
2022/06/13 00:36:54;;;;;;;;;;;;;;;16.01;93.10;97131.38;30001;982;1881;-61
2022/06/13 00:37:24;;;;;;;;;;;;;;;16.02;92.89;97124.78;30001;982;1882;-63
2022/06/13 00:37:58;;;;;;;;;;;;;;;16.02;92.90;97128.31;30001;982;1881;-62
2022/06/13 00:38:29;;;;;;;;;;;;;;;16.04;92.96;97128.78;30001;983;1881;-61
2022/06/13 00:39:00;;;;;;;;;;;;;;;16.05;93.16;97124.12;30001;987;1877;-63
2022/06/13 00:39:31;;;;;;;;;;;;;;;16.06;93.10;97132.00;30001;983;1881;-61
2022/06/13 00:40:02;;;;;;;;;;;;;;;16.06;92.93;97131.22;30001;983;1868;-63
2022/06/13 00:40:34;;;;;;;;;;;;;;;16.06;92.91;97133.94;30001;983;1872;-61
2022/06/13 00:41:09;;;;;;;;;;;;;;;16.05;93.01;97130.41;30001;966;1898;-61
2022/06/13 00:41:41;;;;;;;;;;;;;;;16.06;93.03;97137.50;30001;983;1881;-63
2022/06/13 00:42:16;;;;;;;;;;;;;;;16.06;93.86;97132.00;30001;983;1881;-61
2022/06/13 00:42:48;;;;;;;;;;;;;;;16.06;94.08;97137.50;30001;982;1881;-63
2022/06/13 00:43:18;;;;;;;;;;;;;;;16.06;94.89;97137.50;30001;982;1881;-62
2022/06/13 00:43:50;;;;;;;;;;;;;;;16.06;95.16;97136.69;30001;982;1881;-62
2022/06/13 00:44:23;;;;;;;;;;;;;;;16.04;95.15;97130.72;30001;982;1868;-61
2022/06/13 00:45:11;;;;;;;;;;;;;;;16.04;94.87;97141.66;30001;982;1860;-63
2022/06/13 00:45:42;;;;;;;;;;;;;;;16.04;94.70;97134.25;30001;986;1882;-62
2022/06/13 00:46:17;;;;;;;;;;;;;;;16.04;94.38;97134.25;30001;983;1881;-58
2022/06/13 00:46:49;;;;;;;;;;;;;;;16.05;94.62;97133.13;30001;983;1868;-62
2022/06/13 00:47:19;;;;;;;;;;;;;;;16.04;94.52;97131.53;30001;983;1872;-62
2022/06/13 00:47:52;;;;;;;;;;;;;;;16.05;94.64;97129.59;30001;983;1881;-62
2022/06/13 00:48:26;;;;;;;;;;;;;;;16.04;94.12;97128.78;30001;983;1881;-61
2022/06/13 00:49:00;;;;;;;;;;;;;;;16.06;93.73;97131.22;30001;983;1881;-63
2022/06/13 00:49:42;;;;;;;;;;;;;;;16.08;93.73;97123.47;30001;983;1881;-59
2022/06/13 00:50:17;;;;;;;;;;;;;;;16.10;93.59;97129.44;30001;982;1881;-61
2022/06/13 00:50:52;;;;;;;;;;;;;;;16.09;93.22;97123.16;30001;982;1881;-61
2022/06/13 00:51:23;;;;;;;;;;;;;;;16.10;93.27;97123.97;30001;982;1882;-61
2022/06/13 00:52:12;;;;;;;;;;;;;;;16.11;93.11;97122.84;30001;972;1887;-61
2022/06/13 00:52:54;;;;;;;;;;;;;;;16.15;92.63;97117.53;30001;983;1859;-61
2022/06/13 00:53:28;;;;;;;;;;;;;;;16.16;92.42;97117.22;30001;983;1881;-60
2022/06/13 00:53:59;;;;;;;;;;;;;;;16.17;92.40;97105.13;30001;983;1881;-61
2022/06/13 00:54:32;;;;;;;;;;;;;;;16.21;91.86;97102.56;30001;983;1881;-62
2022/06/13 00:55:03;;;;;;;;;;;;;;;16.25;92.04;97098.84;30001;983;1881;-61
2022/06/13 00:55:43;;;;;;;;;;;;;;;16.31;91.55;97097.53;30001;983;1881;-60
2022/06/13 00:56:18;;;;;;;;;;;;;;;16.30;91.18;97093.19;30001;983;1881;-60
2022/06/13 00:56:50;;;;;;;;;;;;;;;16.29;91.32;97104.44;30001;983;1881;-62
2022/06/13 00:57:23;;;;;;;;;;;;;;;16.27;91.26;97098.53;30001;983;1868;-61
2022/06/13 00:57:55;;;;;;;;;;;;;;;16.24;91.48;97099.16;30001;982;1872;-61
2022/06/13 00:58:29;;;;;;;;;;;;;;;16.21;91.18;97092.41;30001;982;1882;-61
2022/06/13 00:59:03;;;;;;;;;;;;;;;16.20;91.51;97106.41;30001;982;1882;-61
2022/06/13 00:59:36;;;;;;;;;;;;;;;16.17;91.59;97094.19;30001;982;1881;-59
2022/06/13 01:00:11;;;;;;;;;;;;;;;16.17;92.17;97096.09;30001;983;1868;-61
2022/06/13 01:00:43;;;;;;;;;;;;;;;16.16;92.11;97097.25;30001;983;1872;-60
2022/06/13 01:01:14;;;;;;;;;;;;;;;16.14;91.66;97096.75;30001;983;1881;-61
2022/06/13 01:01:46;;;;;;;;;;;;;;;16.14;91.63;97094.81;30001;971;1903;-62
2022/06/13 01:02:17;;;;;;;;;;;;;;;16.15;92.08;97090.16;30001;983;1881;-62
2022/06/13 01:02:50;;;;;;;;;;;;;;;16.15;92.43;97088.22;30001;983;1881;-61
2022/06/13 01:03:22;;;;;;;;;;;;;;;16.16;93.30;97091.75;30001;983;1881;-61
2022/06/13 01:03:53;;;;;;;;;;;;;;;16.16;93.13;97092.56;30001;983;1868;-60
2022/06/13 01:04:24;;;;;;;;;;;;;;;16.15;92.87;97085.47;30001;983;1859;-61
2022/06/13 01:04:56;;;;;;;;;;;;;;;16.15;92.62;97090.16;30001;983;1881;-60
2022/06/13 01:05:28;;;;;;;;;;;;;;;16.16;92.94;97080.81;30001;963;1887;-61
2022/06/13 01:06:00;;;;;;;;;;;;;;;16.15;92.80;97085.47;30001;982;1873;-62
2022/06/13 01:06:34;;;;;;;;;;;;;;;16.17;93.05;97087.91;30001;982;1881;-60
2022/06/13 01:07:05;;;;;;;;;;;;;;;16.18;93.91;97090.31;30001;982;1882;-62
2022/06/13 01:07:36;;;;;;;;;;;;;;;16.17;93.88;97087.91;30001;962;1823;-61
2022/06/13 01:08:08;;;;;;;;;;;;;;;16.17;94.06;97093.38;30001;983;1881;-59
2022/06/13 01:08:39;;;;;;;;;;;;;;;16.15;94.13;97090.16;30001;983;1881;-61
2022/06/13 01:09:11;;;;;;;;;;;;;;;16.15;93.95;97096.44;30001;983;1881;-61
2022/06/13 01:11:25;;;;;;;;;;;;;;;16.14;94.67;97107.72;30001;987;1868;-61
2022/06/13 01:11:57;;;;;;;;;;;;;;;16.13;94.41;97104.16;30001;983;1881;-60
2022/06/13 01:12:28;;;;;;;;;;;;;;;16.13;94.92;97101.44;30001;983;1868;-62
2022/06/13 01:13:02;;;;;;;;;;;;;;;16.14;94.69;97094.03;30001;982;1872;-60
2022/06/13 01:14:04;;;;;;;;;;;;;;;16.14;94.78;97094.03;30001;982;1882;-59
2022/06/13 01:14:50;;;;;;;;;;;;;;;16.14;95.10;97088.53;30001;982;1805;-60
2022/06/13 01:15:30;;;;;;;;;;;;;;;16.13;94.69;97089.66;30001;983;1881;-61
2022/06/13 01:16:23;;;;;;;;;;;;;;;16.14;94.91;97085.81;30001;983;1881;-60
2022/06/13 01:17:14;;;;;;;;;;;;;;;16.14;94.74;97096.75;30001;983;1863;-60
2022/06/13 01:17:52;;;;;;;;;;;;;;;16.14;94.72;97085.81;30001;970;1895;-60
2022/06/13 01:18:43;;;;;;;;;;;;;;;16.13;94.29;97086.94;30001;983;1881;-59
2022/06/13 01:19:49;;;;;;;;;;;;;;;16.12;94.17;97097.06;30001;983;1881;-60
2022/06/13 01:20:39;;;;;;;;;;;;;;;16.12;94.06;97097.06;30001;982;1877;-61
2022/06/13 01:21:20;;;;;;;;;;;;;;;16.12;94.08;97096.28;30001;982;1873;-60
2022/06/13 01:22:05;;;;;;;;;;;;;;;16.11;94.06;97100.13;30001;982;1882;-60
2022/06/13 01:23:08;;;;;;;;;;;;;;;16.11;93.86;97105.63;30001;982;1868;-60
2022/06/13 01:23:57;;;;;;;;;;;;;;;16.11;94.91;97100.94;30001;983;1872;-59
2022/06/13 01:24:46;;;;;;;;;;;;;;;16.08;95.48;97104.31;30001;983;1872;-60
2022/06/13 01:25:37;;;;;;;;;;;;;;;16.06;95.73;97112.06;30001;983;1876;-60
2022/06/13 01:26:39;;;;;;;;;;;;;;;16.02;95.72;97114.63;30001;983;1877;-60
2022/06/13 01:27:42;;;;;;;;;;;;;;;16.02;95.77;97111.09;30001;982;1863;-60
2022/06/13 01:28:42;;;;;;;;;;;;;;;15.98;96.08;97110.91;30001;982;1868;-60
2022/06/13 01:29:31;;;;;;;;;;;;;;;15.98;95.69;97102.72;30001;982;1877;-60
2022/06/13 01:30:28;;;;;;;;;;;;;;;16.01;95.03;97109.47;30001;982;1873;-61
2022/06/13 01:31:21;;;;;;;;;;;;;;;16.02;94.55;97102.88;30001;983;1868;-59
2022/06/13 01:32:24;;;;;;;;;;;;;;;16.02;94.53;97103.69;30001;987;1881;-61
2022/06/13 01:33:32;;;;;;;;;;;;;;;16.02;94.63;97098.19;30001;983;1864;-59
2022/06/13 01:34:29;;;;;;;;;;;;;;;16.01;95.07;97093.06;30001;983;1759;-60
2022/06/13 01:35:15;;;;;;;;;;;;;;;16.01;95.00;97096.59;30001;982;1877;-59
2022/06/13 01:35:56;;;;;;;;;;;;;;;16.01;94.89;97104.00;30001;982;1881;-62
2022/06/13 01:36:49;;;;;;;;;;;;;;;16.01;94.69;97104.00;30001;982;1881;-60
2022/06/13 01:37:38;;;;;;;;;;;;;;;16.01;94.61;97104.81;30001;982;1881;-61
2022/06/13 01:38:16;;;;;;;;;;;;;;;16.00;94.92;97111.41;30001;983;1859;-61
2022/06/13 01:39:06;;;;;;;;;;;;;;;15.99;94.81;97104.31;30001;983;1872;-61
2022/06/13 01:39:52;;;;;;;;;;;;;;;16.01;94.71;97106.72;30001;983;1859;-60
2022/06/13 01:40:49;;;;;;;;;;;;;;;16.00;95.11;97105.13;30001;983;1872;-60
2022/06/13 01:41:41;;;;;;;;;;;;;;;16.00;94.61;97094.97;30001;983;1877;-59
2022/06/13 01:42:31;;;;;;;;;;;;;;;16.00;94.02;97089.50;30001;982;1881;-60
2022/06/13 01:43:11;;;;;;;;;;;;;;;16.02;93.68;97095.47;30001;982;1877;-62
2022/06/13 01:43:49;;;;;;;;;;;;;;;16.01;93.83;97091.13;30001;982;1881;-61
2022/06/13 01:44:35;;;;;;;;;;;;;;;16.02;93.47;97086.44;30001;982;1881;-61
2022/06/13 01:45:28;;;;;;;;;;;;;;;16.02;93.45;97087.25;30001;982;1869;-60
2022/06/13 01:46:10;;;;;;;;;;;;;;;16.02;93.78;97081.78;30001;983;1872;-60
2022/06/13 01:46:56;;;;;;;;;;;;;;;16.02;93.75;97081.78;30001;983;1881;-60
2022/06/13 01:47:34;;;;;;;;;;;;;;;16.02;93.79;97081.78;30001;983;1881;-60
2022/06/13 01:48:28;;;;;;;;;;;;;;;16.01;93.52;97090.31;30001;983;1881;-61
2022/06/13 01:49:25;;;;;;;;;;;;;;;16.01;93.46;97091.13;30001;983;1877;-61
2022/06/13 01:50:10;;;;;;;;;;;;;;;16.00;93.44;97086.78;30001;982;1881;-60
2022/06/13 01:50:46;;;;;;;;;;;;;;;16.01;92.91;97088.38;30001;982;1868;-60
2022/06/13 01:51:23;;;;;;;;;;;;;;;16.01;93.32;97087.56;30001;982;1873;-60
2022/06/13 01:52:07;;;;;;;;;;;;;;;16.01;93.46;97082.91;30001;982;1881;-60
2022/06/13 01:53:02;;;;;;;;;;;;;;;16.02;93.82;97080.97;30001;982;1881;-60
2022/06/13 01:53:51;;;;;;;;;;;;;;;16.01;93.74;97079.38;30001;983;1881;-60
2022/06/13 01:54:40;;;;;;;;;;;;;;;16.00;94.27;97085.97;30001;983;1872;-59
2022/06/13 01:55:40;;;;;;;;;;;;;;;15.97;94.57;97089.34;30001;983;1877;-60
2022/06/13 01:56:12;;;;;;;;;;;;;;;15.94;94.41;97088.06;30001;983;1864;-60
2022/06/13 01:57:09;;;;;;;;;;;;;;;15.94;94.33;97093.53;30001;983;1873;-60
2022/06/13 01:57:44;;;;;;;;;;;;;;;15.95;94.45;97097.06;30001;982;1877;-59
2022/06/13 01:58:34;;;;;;;;;;;;;;;15.95;94.43;97092.41;30001;982;1882;-60
2022/06/13 01:59:14;;;;;;;;;;;;;;;15.95;94.85;97106.09;30001;982;1881;-60
2022/06/13 01:59:56;;;;;;;;;;;;;;;15.94;94.92;97104.47;30001;983;1880;-60
2022/06/13 02:00:30;;;;;;;;;;;;;;;15.95;94.51;97103.34;30001;983;1881;-60
2022/06/13 02:01:35;;;;;;;;;;;;;;;15.97;94.28;97105.75;30001;971;1903;-59
2022/06/13 02:02:10;;;;;;;;;;;;;;;15.98;94.00;97102.72;30001;983;1863;-60
2022/06/13 02:02:51;;;;;;;;;;;;;;;15.98;94.01;97102.72;30001;983;1872;-60
2022/06/13 02:03:27;;;;;;;;;;;;;;;15.99;93.99;97101.59;30001;983;1881;-61
2022/06/13 02:04:00;;;;;;;;;;;;;;;16.00;93.34;97099.66;30001;983;1881;-60
2022/06/13 02:04:35;;;;;;;;;;;;;;;16.03;92.97;97097.06;30001;983;1881;-60
2022/06/13 02:05:19;;;;;;;;;;;;;;;16.03;92.29;97094.34;30001;982;1881;-60
2022/06/13 02:05:52;;;;;;;;;;;;;;;16.02;92.16;97087.25;30001;982;1881;-62
2022/06/13 02:06:32;;;;;;;;;;;;;;;16.02;92.08;97086.44;30001;982;1881;-60
2022/06/13 02:07:15;;;;;;;;;;;;;;;16.01;92.16;97084.84;30001;982;1881;-60
2022/06/13 02:07:50;;;;;;;;;;;;;;;16.01;91.98;97096.59;30001;983;1868;-60
2022/06/13 02:08:25;;;;;;;;;;;;;;;15.99;92.33;97098.84;30001;983;1872;-59
2022/06/13 02:08:58;;;;;;;;;;;;;;;15.99;92.66;97098.84;30001;983;1881;-60
2022/06/13 02:09:32;;;;;;;;;;;;;;;15.99;93.53;97104.31;30001;983;1881;-60
2022/06/13 02:10:07;;;;;;;;;;;;;;;15.97;93.95;97101.09;30001;983;1881;-60
2022/06/13 02:10:41;;;;;;;;;;;;;;;15.98;93.67;97099.97;30001;983;1881;-60
2022/06/13 02:11:16;;;;;;;;;;;;;;;15.98;92.87;97107.38;30001;983;1881;-59
2022/06/13 02:11:49;;;;;;;;;;;;;;;15.98;92.83;97102.72;30001;983;1881;-58
2022/06/13 02:12:22;;;;;;;;;;;;;;;15.98;92.76;97116.38;30001;982;1881;-61
2022/06/13 02:12:57;;;;;;;;;;;;;;;15.98;92.32;97112.84;30001;982;1868;-57
2022/06/13 02:13:33;;;;;;;;;;;;;;;16.03;92.32;97116.22;30001;982;1873;-61
2022/06/13 02:14:10;;;;;;;;;;;;;;;16.04;92.28;97115.09;30001;982;1881;-60
2022/06/13 02:14:48;;;;;;;;;;;;;;;16.04;91.82;97115.09;30001;982;1881;-61
2022/06/13 02:15:25;;;;;;;;;;;;;;;16.05;92.24;97116.72;30001;983;1881;-61
2022/06/13 02:15:59;;;;;;;;;;;;;;;16.04;92.21;97117.03;30001;983;1881;-60
2022/06/13 02:16:52;;;;;;;;;;;;;;;16.03;92.76;97116.22;30001;983;1881;-60
2022/06/13 02:17:27;;;;;;;;;;;;;;;16.02;92.35;97122.84;30001;983;1877;-60
2022/06/13 02:18:00;;;;;;;;;;;;;;;16.02;92.62;97122.84;30001;983;1868;-60
2022/06/13 02:18:32;;;;;;;;;;;;;;;16.02;92.56;97125.56;30001;983;1872;-60
2022/06/13 02:19:04;;;;;;;;;;;;;;;16.02;92.84;97120.09;30001;983;1881;-61
2022/06/13 02:19:58;;;;;;;;;;;;;;;16.03;92.80;97118.16;30001;983;1881;-58
2022/06/13 02:20:34;;;;;;;;;;;;;;;16.02;93.04;97122.84;30001;982;1877;-61
2022/06/13 02:21:08;;;;;;;;;;;;;;;16.03;92.81;97124.44;30001;982;1882;-61
2022/06/13 02:21:48;;;;;;;;;;;;;;;16.02;92.83;97120.09;30001;982;1881;-60
2022/06/13 02:22:37;;;;;;;;;;;;;;;16.02;92.95;97122.84;30001;983;1881;-61
2022/06/13 02:23:13;;;;;;;;;;;;;;;16.01;92.91;97129.44;30001;986;1855;-58
2022/06/13 02:23:50;;;;;;;;;;;;;;;16.02;93.05;97125.56;30001;983;1863;-60
2022/06/13 02:24:23;;;;;;;;;;;;;;;16.02;93.43;97127.50;30001;983;1877;-59
2022/06/13 02:25:20;;;;;;;;;;;;;;;16.02;93.61;97127.50;30001;983;1877;-60
2022/06/13 02:26:03;;;;;;;;;;;;;;;16.00;94.54;97125.09;30001;983;1872;-59
2022/06/13 02:26:37;;;;;;;;;;;;;;;15.98;94.19;97123.78;30001;983;1877;-60
2022/06/13 02:27:10;;;;;;;;;;;;;;;15.97;94.65;97117.53;30001;983;1877;-60
2022/06/13 02:27:44;;;;;;;;;;;;;;;15.95;94.23;97114.28;30001;982;1877;-61
2022/06/13 02:28:19;;;;;;;;;;;;;;;15.96;94.24;97123.31;30001;982;1864;-59
2022/06/13 02:28:54;;;;;;;;;;;;;;;15.95;94.32;97119.78;30001;982;1868;-60
2022/06/13 02:29:29;;;;;;;;;;;;;;;15.94;94.56;97122.84;30001;982;1877;-60
2022/06/13 02:30:02;;;;;;;;;;;;;;;15.94;94.31;97120.13;30001;973;1898;-60
2022/06/13 02:30:37;;;;;;;;;;;;;;;15.95;94.70;97118.97;30001;983;1876;-61
2022/06/13 02:31:20;;;;;;;;;;;;;;;15.95;94.70;97118.97;30001;983;1876;-62
2022/06/13 02:31:55;;;;;;;;;;;;;;;15.93;95.01;97113.03;30001;983;1877;-60
2022/06/13 02:32:30;;;;;;;;;;;;;;;15.92;95.22;97112.22;30001;983;1877;-60
2022/06/13 02:33:09;;;;;;;;;;;;;;;15.92;95.15;97114.97;30001;983;1877;-61
2022/06/13 02:33:53;;;;;;;;;;;;;;;15.92;95.14;97114.97;30001;983;1864;-60
2022/06/13 02:34:34;;;;;;;;;;;;;;;15.91;95.75;97116.09;30001;982;1868;-60
2022/06/13 02:35:14;;;;;;;;;;;;;;;15.90;95.85;97122.69;30001;982;1877;-60
2022/06/13 02:35:48;;;;;;;;;;;;;;;15.87;95.58;97117.84;30001;982;1877;-61
2022/06/13 02:36:39;;;;;;;;;;;;;;;15.86;95.35;97121.72;30001;982;1877;-60
2022/06/13 02:37:17;;;;;;;;;;;;;;;15.85;95.05;97117.38;30001;982;1873;-61
2022/06/13 02:37:53;;;;;;;;;;;;;;;15.84;95.14;97112.22;30001;983;1876;-60
2022/06/13 02:38:27;;;;;;;;;;;;;;;15.83;95.05;97116.88;30001;983;1876;-61
2022/06/13 02:39:00;;;;;;;;;;;;;;;15.84;94.75;97117.69;30001;983;1863;-60
2022/06/13 02:39:37;;;;;;;;;;;;;;;15.83;94.92;97116.88;30001;983;1868;-61
2022/06/13 02:40:17;;;;;;;;;;;;;;;15.83;94.63;97122.34;30001;983;1877;-60
2022/06/13 02:40:53;;;;;;;;;;;;;;;15.81;95.08;97113.66;30001;983;1877;-59
2022/06/13 02:41:26;;;;;;;;;;;;;;;15.82;94.94;97115.28;30001;983;1877;-60
2022/06/13 02:42:11;;;;;;;;;;;;;;;15.81;94.96;97112.84;30001;982;1877;-61
2022/06/13 02:42:55;;;;;;;;;;;;;;;15.78;95.19;97114.31;30001;982;1877;-60
2022/06/13 02:43:41;;;;;;;;;;;;;;;15.77;95.28;97112.69;30001;982;1877;-60
2022/06/13 02:44:24;;;;;;;;;;;;;;;15.75;95.90;97114.94;30001;982;1864;-61
2022/06/13 02:45:01;;;;;;;;;;;;;;;15.73;96.19;97112.53;30001;983;1868;-61
2022/06/13 02:45:58;;;;;;;;;;;;;;;15.71;95.99;97109.31;30001;983;1876;-60
2022/06/13 02:46:35;;;;;;;;;;;;;;;15.69;96.23;97111.56;30001;983;1872;-61
2022/06/13 02:47:24;;;;;;;;;;;;;;;15.68;96.16;97115.41;30001;983;1877;-60
2022/06/13 02:48:05;;;;;;;;;;;;;;;15.66;95.97;97112.19;30001;983;1868;-60
2022/06/13 02:48:40;;;;;;;;;;;;;;;15.68;95.52;97109.12;30001;983;1877;-61
2022/06/13 02:49:31;;;;;;;;;;;;;;;15.66;95.75;97109.47;30001;982;1877;-60
2022/06/13 02:50:08;;;;;;;;;;;;;;;15.64;95.63;97119.91;30001;982;1859;-60
2022/06/13 02:50:47;;;;;;;;;;;;;;;15.63;95.71;97112.03;30001;982;1868;-59
2022/06/13 02:51:31;;;;;;;;;;;;;;;15.61;95.43;97114.28;30001;982;1877;-60
2022/06/13 02:52:21;;;;;;;;;;;;;;;15.62;95.79;97118.63;30001;982;1877;-60
2022/06/13 02:53:18;;;;;;;;;;;;;;;15.58;95.56;97118.47;30001;983;1872;-60
2022/06/13 02:54:01;;;;;;;;;;;;;;;15.56;95.65;97111.69;30001;983;1863;-61
2022/06/13 02:54:36;;;;;;;;;;;;;;;15.54;95.69;97113.94;30002;983;1868;-61
2022/06/13 02:55:08;;;;;;;;;;;;;;;15.51;96.00;97109.09;30001;983;1877;-60
2022/06/13 02:55:42;;;;;;;;;;;;;;;15.48;95.58;97105.06;30002;983;1877;-60
2022/06/13 02:56:32;;;;;;;;;;;;;;;15.47;95.64;97108.12;30002;983;1864;-60
2022/06/13 02:57:27;;;;;;;;;;;;;;;15.43;95.73;97110.69;30002;982;1864;-61
2022/06/13 02:58:21;;;;;;;;;;;;;;;15.39;95.48;97112.44;30002;982;1877;-61
2022/06/13 02:59:17;;;;;;;;;;;;;;;15.36;95.56;97116.62;30002;982;1873;-60
2022/06/13 03:00:11;;;;;;;;;;;;;;;15.35;95.52;97115.00;30002;982;1873;-60
2022/06/13 03:00:52;;;;;;;;;;;;;;;15.33;95.74;97119.19;30002;983;1872;-61
2022/06/13 03:01:31;;;;;;;;;;;;;;;15.34;95.50;97116.12;30002;983;1863;-60
2022/06/13 03:02:04;;;;;;;;;;;;;;;15.32;95.19;97118.38;30002;983;1868;-60
2022/06/13 03:02:47;;;;;;;;;;;;;;;15.30;95.07;97111.59;30002;983;1877;-60
2022/06/13 03:03:25;;;;;;;;;;;;;;;15.28;94.73;97114.66;30002;983;1877;-60
2022/06/13 03:04:01;;;;;;;;;;;;;;;15.26;95.24;97108.69;30002;983;1877;-61
2022/06/13 03:04:35;;;;;;;;;;;;;;;15.25;95.25;97112.56;30002;982;1877;-60
2022/06/13 03:05:18;;;;;;;;;;;;;;;15.24;95.23;97118.38;30002;982;1877;-60
2022/06/13 03:06:07;;;;;;;;;;;;;;;15.23;94.98;97114.81;30002;982;1877;-60
2022/06/13 03:06:49;;;;;;;;;;;;;;;15.24;94.86;97116.44;30002;982;1855;-59
2022/06/13 03:07:35;;;;;;;;;;;;;;;15.23;94.75;97112.09;30002;983;1868;-61
2022/06/13 03:08:16;;;;;;;;;;;;;;;15.20;95.05;97114.66;30002;983;1877;-60
2022/06/13 03:08:56;;;;;;;;;;;;;;;15.18;94.88;97112.25;30002;983;1812;-59
2022/06/13 03:09:31;;;;;;;;;;;;;;;15.17;95.22;97110.63;30002;983;1876;-60
2022/06/13 03:10:13;;;;;;;;;;;;;;;15.17;95.16;97107.88;30002;983;1877;-60
2022/06/13 03:11:00;;;;;;;;;;;;;;;15.15;95.25;97106.59;30002;983;1877;-60
2022/06/13 03:11:57;;;;;;;;;;;;;;;15.13;95.01;97119.78;30002;983;1877;-60
2022/06/13 03:12:35;;;;;;;;;;;;;;;15.11;95.06;97117.34;30002;982;1859;-60
2022/06/13 03:13:09;;;;;;;;;;;;;;;15.06;94.66;97115.56;30002;982;1868;-60
2022/06/13 03:13:59;;;;;;;;;;;;;;;15.06;94.87;97109.28;30002;982;1877;-59
2022/06/13 03:14:56;;;;;;;;;;;;;;;15.04;94.75;97112.34;30002;985;1872;-59
2022/06/13 03:15:30;;;;;;;;;;;;;;;15.04;94.33;97111.53;30002;983;1877;-60
2022/06/13 03:16:21;;;;;;;;;;;;;;;15.02;94.71;97105.56;30002;983;1877;-59
2022/06/13 03:17:03;;;;;;;;;;;;;;;15.01;94.54;97112.97;30002;983;1872;-59
2022/06/13 03:17:44;;;;;;;;;;;;;;;15.00;94.75;97116.81;30002;983;1864;-59
2022/06/13 03:18:19;;;;;;;;;;;;;;;14.98;95.08;97121.00;30002;983;1868;-60
2022/06/13 03:18:54;;;;;;;;;;;;;;;14.96;94.89;97123.22;30002;983;1877;-60
2022/06/13 03:19:33;;;;;;;;;;;;;;;14.95;95.01;97116.16;30002;982;1877;-59
2022/06/13 03:20:13;;;;;;;;;;;;;;;14.94;94.90;97111.81;30002;986;1877;-60
2022/06/13 03:20:47;;;;;;;;;;;;;;;14.93;94.79;97111.00;30002;982;1877;-61
2022/06/13 03:21:27;;;;;;;;;;;;;;;14.93;94.98;97112.94;30002;982;1864;-60
2022/06/13 03:22:04;;;;;;;;;;;;;;;14.94;94.74;97117.28;30002;983;1868;-60
2022/06/13 03:22:40;;;;;;;;;;;;;;;14.93;95.00;97105.53;30002;983;1876;-59
2022/06/13 03:23:14;;;;;;;;;;;;;;;14.94;95.22;97112.63;30002;983;1876;-59
2022/06/13 03:23:47;;;;;;;;;;;;;;;14.93;94.74;97115.66;30002;983;1877;-60
2022/06/13 03:24:32;;;;;;;;;;;;;;;14.90;95.16;97114.38;30002;983;1876;-58
2022/06/13 03:25:13;;;;;;;;;;;;;;;14.89;95.05;97114.69;30002;983;1877;-61
2022/06/13 03:25:54;;;;;;;;;;;;;;;14.86;95.24;97110.69;30002;983;1877;-60
2022/06/13 03:26:37;;;;;;;;;;;;;;;14.86;94.83;97110.69;30002;983;1864;-61
2022/06/13 03:27:19;;;;;;;;;;;;;;;14.85;94.68;97108.25;30002;982;1868;-60